»·PEaware :: N129BX KFLG-KABQ

N129BX :: KFLG-KABQ

FLIGHT INFORMATION

Flight Status: Arrived
Operator: Privately registered:
United States
More flights under this callsign
Pilot: Simon H. (14656)
Aircraft: Unknown
(TBM8)
More flights by this aircraft type
Origin: KFLG Flagstaff Pulliam
United States
Destination: KABQ Albuquerque Intl Sunport
United States
More flights between these airports :: More routes between these airports
Route: INW ZUN LAVAN3
File this flight plan on PilotEdge
Remarks:
Altitude:
(Current/Filed)
23,000ft
Speed:
(Current/Filed)
210kts
Departed: 12-Oct-17 06:57 PM
Arrived: 12-Oct-17 07:58 PM
Distance/Time
Traveled:
248nm/1:00
Distance/Time
To Go:
Arrived

Flight Plot

Page will automatically refresh every two minutes.

Flight plan parsing failed; only flown route is shown


Map Options




Map Legend


Flown Route
Filed Route
Departure Airport
Arrival Airport
Navaid (VOR, NDB)
Fix

Horizontal Profiles

Position Reports

Time Latitude Longitude Heading Altitude Ground
Speed
12-Oct-17 18:38 35.135567 -111.677140 39 7014ft 0kts
12-Oct-17 18:39 35.135567 -111.677140 39 7014ft 0kts
12-Oct-17 18:40 35.135567 -111.677140 39 7014ft 0kts
12-Oct-17 18:41 35.135567 -111.677140 39 7014ft 0kts
12-Oct-17 18:42 35.135567 -111.677140 39 7014ft 0kts
12-Oct-17 18:43 35.135567 -111.677140 39 7014ft 0kts
12-Oct-17 18:44 35.135567 -111.677140 39 7014ft 0kts
12-Oct-17 18:45 35.135567 -111.677140 39 7014ft 0kts
12-Oct-17 18:46 35.135567 -111.677140 39 7014ft 0kts
12-Oct-17 18:47 35.135567 -111.677140 39 7014ft 0kts
12-Oct-17 18:48 35.135567 -111.677140 39 7014ft 0kts
12-Oct-17 18:49 35.135567 -111.677140 39 7014ft 0kts
12-Oct-17 18:50 35.135567 -111.677140 39 7014ft 0kts
12-Oct-17 18:51 35.135567 -111.677140 39 7014ft 0kts
12-Oct-17 18:52 35.135567 -111.677140 39 7014ft 0kts
12-Oct-17 18:53 35.135567 -111.677140 39 7014ft 0kts
12-Oct-17 18:54 35.135567 -111.677140 39 7014ft 0kts
12-Oct-17 18:55 35.135567 -111.677140 39 7014ft 0kts
12-Oct-17 18:56 35.135567 -111.677140 39 7014ft 0kts
12-Oct-17 18:57 35.135567 -111.677140 39 7014ft 0kts
12-Oct-17 18:58 35.135567 -111.677140 39 7014ft 0kts
12-Oct-17 18:59 35.135567 -111.677140 39 7014ft 0kts
12-Oct-17 19:00 35.135567 -111.677140 39 7014ft 0kts
12-Oct-17 19:01 35.140638 -111.670811 40 7014ft 51kts
12-Oct-17 19:02 35.149939 -111.660294 125 7014ft 0kts
12-Oct-17 19:03 35.149927 -111.660275 130 7014ft 3kts
12-Oct-17 19:04 35.140276 -111.669421 222 7015ft 103kts
12-Oct-17 19:05 35.110022 -111.675480 182 7833ft 141kts
12-Oct-17 19:06 35.069958 -111.675593 174 9054ft 152kts
12-Oct-17 19:07 35.079752 -111.635396 353 10035ft 185kts
12-Oct-17 19:08 35.125151 -111.654701 0 11343ft 189kts
12-Oct-17 19:09 35.137611 -111.595882 102 12433ft 212kts
12-Oct-17 19:10 35.129550 -111.521579 100 13473ft 242kts
12-Oct-17 19:11 35.121574 -111.435197 100 14511ft 269kts
12-Oct-17 19:12 35.113444 -111.346585 101 15491ft 278kts
12-Oct-17 19:13 35.105398 -111.255899 101 16422ft 283kts
12-Oct-17 19:14 35.096629 -111.161695 101 17378ft 286kts
12-Oct-17 19:15 35.087692 -111.067032 102 18335ft 287kts
12-Oct-17 19:16 35.078490 -110.971389 102 19300ft 291kts
12-Oct-17 19:17 35.069207 -110.875089 103 20263ft 292kts
12-Oct-17 19:18 35.060406 -110.782702 102 21514ft 283kts
12-Oct-17 19:19 35.055666 -110.689276 100 22968ft 280kts
12-Oct-17 19:20 35.050255 -110.588223 99 23117ft 321kts
12-Oct-17 19:21 35.044122 -110.477129 99 23115ft 344kts
12-Oct-17 19:22 35.037768 -110.361405 99 23114ft 350kts
12-Oct-17 19:24 35.031868 -110.249302 99 23103ft 349kts
12-Oct-17 19:25 35.025435 -110.133059 100 23107ft 348kts
12-Oct-17 19:26 35.018560 -110.017462 98 23135ft 347kts
12-Oct-17 19:27 35.011725 -109.902762 99 23162ft 347kts
12-Oct-17 19:28 35.004839 -109.787421 99 23163ft 347kts
12-Oct-17 19:29 34.997798 -109.672231 99 23156ft 347kts
12-Oct-17 19:30 34.990653 -109.557249 99 23156ft 347kts
12-Oct-17 19:31 34.983374 -109.442390 99 23157ft 346kts
12-Oct-17 19:32 34.976319 -109.331602 99 23150ft 345kts
12-Oct-17 19:33 34.969518 -109.218304 99 23149ft 343kts
12-Oct-17 19:34 34.955746 -109.107016 109 23157ft 336kts
12-Oct-17 19:35 34.933602 -108.999417 109 23162ft 335kts
12-Oct-17 19:36 34.911328 -108.892259 108 23167ft 333kts
12-Oct-17 19:37 34.890570 -108.792773 108 23182ft 332kts
12-Oct-17 19:38 34.868268 -108.686406 108 23197ft 330kts
12-Oct-17 19:39 34.845868 -108.580108 108 23216ft 330kts
12-Oct-17 19:40 34.823439 -108.474112 108 23240ft 329kts
12-Oct-17 19:41 34.800897 -108.368151 108 23243ft 330kts
12-Oct-17 19:42 34.780601 -108.271225 108 23237ft 329kts
12-Oct-17 19:43 34.758054 -108.165503 109 23237ft 329kts
12-Oct-17 19:44 34.735293 -108.059950 109 23238ft 329kts
12-Oct-17 19:45 34.712456 -107.954482 109 23238ft 329kts
12-Oct-17 19:46 34.689419 -107.849277 109 23115ft 332kts
12-Oct-17 19:47 34.667583 -107.741106 97 22400ft 341kts
12-Oct-17 19:48 34.695694 -107.634859 63 21279ft 333kts
12-Oct-17 19:49 34.736069 -107.540392 62 19822ft 319kts
12-Oct-17 19:50 34.777900 -107.442663 62 18425ft 343kts
12-Oct-17 19:51 34.816885 -107.350858 62 16926ft 281kts
12-Oct-17 19:52 34.849282 -107.276072 63 15482ft 254kts
12-Oct-17 19:53 34.880369 -107.203383 62 13998ft 241kts
12-Oct-17 19:54 34.909999 -107.133484 63 12527ft 234kts
12-Oct-17 19:55 34.939754 -107.062878 63 11093ft 253kts
12-Oct-17 19:56 34.953831 -106.981455 88 9640ft 257kts
12-Oct-17 19:57 34.958850 -106.895778 88 8173ft 255kts
12-Oct-17 19:58 34.963748 -106.814082 88 8037ft 245kts
12-Oct-17 19:59 34.970944 -106.731520 83 7695ft 256kts
12-Oct-17 20:00 34.985001 -106.676868 59 6526ft 128kts
12-Oct-17 20:01 35.007593 -106.648588 46 5768ft 114kts
12-Oct-17 20:02 35.028603 -106.622945 47 5358ft 81kts
12-Oct-17 20:03 35.034122 -106.617626 16 5357ft 0kts
12-Oct-17 20:04 35.034122 -106.617626 16 5357ft 0kts
12-Oct-17 20:05 35.035599 -106.616586 55 5357ft 0kts
12-Oct-17 20:06 35.036039 -106.618766 227 5357ft 0kts
12-Oct-17 20:07 35.036039 -106.618766 227 5357ft 0kts
12-Oct-17 20:08 35.036039 -106.618766 227 5357ft 0kts
12-Oct-17 20:09 35.036039 -106.618766 227 5357ft 0kts
12-Oct-17 20:10 35.036039 -106.618766 227 5357ft 0kts

Navigation Log

Ident Type
Flight plan parsing failed, navigation log unavailable